PWSweather.com
Personal Weather Stations
Station Observations
STWO1
East Side, Stillwater, OK 74075

East SideStillwater, OK 74075

Lat: 36.1242949, Lon: -97.044042

Elevation: 942

Station Type: Davis VP2

http://stillwaterweather.com

Latest ConditionsUpdated 10:00:00 AM CDT Tuesday, Apr 23, 2019
Currently Today's Max Today's Min Today's Average
Temperature 57.0°F13.9°C 64.7°F18.2°C 55.3°F12.9°C 59.5°F15.3°C
Dew Point 55.0°F12.8°C 57.0°F13.9°C 53.1°F11.7°C 54.8°F12.7°C
Winds 3.5 mph N5.6 kmh N 6.9 mph -11.1 kmh - - 1.6 mph 2.6 kmh
Wind Gusts 8.1 mph13.0 kmh 12.7 mph20.4 kmh - -
Humidity 93% 93% 75% 85%
Pressure 30.00 in1015.9 mb 30.05 in1017.6 mb 29.94 in1013.9 mb -
Precipitation - 0.18 in4.6 mm - -
Hour Temp Dew Point Humidity Winds Wind Gusts Pressure Precip Precip Rate Daily Precip Total
10:00 AM 57.0°F13.9°C 55.0°F12.8°C 93% 3.5 mph N5.6 kmh N 8.1 mph13.0 kmh 30.00 in1015.9 mb - 0.03 in0.8 mm 0.18 in4.6 mm
09:50 AM 56.7°F13.7°C 54.7°F12.6°C 93% Calm Calm 2.3 mph3.7 kmh 30.00 in1015.9 mb - 0.02 in0.5 mm 0.17 in4.3 mm
09:40 AM 56.5°F13.6°C 54.5°F12.5°C 93% 2.3 mph ENE3.7 kmh ENE 3.5 mph5.6 kmh 29.98 in1015.2 mb - 0.03 in0.8 mm 0.17 in4.3 mm
09:30 AM 56.0°F13.3°C 54.0°F12.2°C 93% Calm Calm 3.5 mph5.6 kmh 29.99 in1015.6 mb - 0.02 in0.5 mm 0.16 in4.1 mm
09:20 AM 55.9°F13.3°C 53.9°F12.2°C 93% Calm Calm 3.5 mph5.6 kmh 29.99 in1015.6 mb - 0.03 in0.8 mm 0.16 in4.1 mm
09:10 AM 55.8°F13.2°C 53.8°F12.1°C 93% 2.3 mph NNW3.7 kmh NNW 4.6 mph7.4 kmh 30.00 in1015.9 mb - 0.04 in1.0 mm 0.16 in4.1 mm
09:00 AM 55.6°F13.1°C 53.6°F12.0°C 93% 2.3 mph NW3.7 kmh NW 4.6 mph7.4 kmh 30.01 in1016.3 mb - 0.03 in0.8 mm 0.15 in3.8 mm
08:50 AM 55.4°F13.0°C 53.1°F11.7°C 92% 4.6 mph NNW7.4 kmh NNW 11.5 mph18.5 kmh 30.01 in1016.3 mb - 0.04 in1.0 mm 0.15 in3.8 mm
08:40 AM 55.4°F13.0°C 53.1°F11.7°C 92% 3.5 mph N5.6 kmh N 4.6 mph7.4 kmh 30.01 in1016.3 mb - 0.04 in1.0 mm 0.14 in3.6 mm
08:30 AM 55.3°F12.9°C 53.1°F11.7°C 92% 2.3 mph N3.7 kmh N 4.6 mph7.4 kmh 30.02 in1016.6 mb - 0.04 in1.0 mm 0.14 in3.6 mm
08:20 AM 55.4°F13.0°C 53.1°F11.7°C 92% 2.3 mph N3.7 kmh N 3.5 mph5.6 kmh 30.01 in1016.3 mb - 0.04 in1.0 mm 0.13 in3.3 mm
08:10 AM 55.5°F13.1°C 53.2°F11.8°C 92% 4.6 mph N7.4 kmh N 12.7 mph20.4 kmh 30.03 in1016.9 mb - 0.04 in1.0 mm 0.12 in3.0 mm
08:00 AM 55.6°F13.1°C 53.3°F11.8°C 92% Calm Calm 2.3 mph3.7 kmh 30.04 in1017.3 mb - 0.04 in1.0 mm 0.12 in3.0 mm
07:50 AM 55.6°F13.1°C 53.3°F11.8°C 92% 2.3 mph NW3.7 kmh NW 2.3 mph3.7 kmh 30.05 in1017.6 mb - 0.04 in1.0 mm 0.11 in2.8 mm
07:40 AM 55.7°F13.2°C 53.4°F11.9°C 92% 1.2 mph NW1.9 kmh NW 2.3 mph3.7 kmh 30.05 in1017.6 mb - 0.03 in0.8 mm 0.10 in2.5 mm
07:30 AM 55.8°F13.2°C 53.5°F11.9°C 92% 1.2 mph WNW1.9 kmh WNW 3.5 mph5.6 kmh 30.05 in1017.6 mb - 0.03 in0.8 mm 0.10 in2.5 mm
07:20 AM 55.7°F13.2°C 53.1°F11.7°C 91% 2.3 mph W3.7 kmh W 2.3 mph3.7 kmh 30.04 in1017.3 mb - 0.02 in0.5 mm 0.09 in2.3 mm
07:10 AM 56.1°F13.4°C 53.5°F11.9°C 91% 2.3 mph NW3.7 kmh NW 5.8 mph9.3 kmh 30.02 in1016.6 mb - 0.02 in0.5 mm 0.08 in2.0 mm
07:00 AM 56.4°F13.6°C 53.8°F12.1°C 91% 2.3 mph W3.7 kmh W 6.9 mph11.1 kmh 30.02 in1016.6 mb - 0.02 in0.5 mm 0.08 in2.0 mm
06:50 AM 56.4°F13.6°C 53.8°F12.1°C 91% 1.2 mph N1.9 kmh N 4.6 mph7.4 kmh 29.99 in1015.6 mb - 0.01 in0.3 mm 0.07 in1.8 mm
06:40 AM 56.5°F13.6°C 53.9°F12.2°C 91% 3.5 mph N5.6 kmh N 4.6 mph7.4 kmh 29.95 in1014.2 mb - 0.01 in0.3 mm 0.07 in1.8 mm
06:30 AM 56.6°F13.7°C 54.0°F12.2°C 91% 3.5 mph N5.6 kmh N 8.1 mph13.0 kmh 29.96 in1014.6 mb - 0.01 in0.3 mm 0.07 in1.8 mm
06:20 AM 56.7°F13.7°C 53.8°F12.1°C 90% 1.2 mph NW1.9 kmh NW 3.5 mph5.6 kmh 29.97 in1014.9 mb - 0.02 in0.5 mm 0.07 in1.8 mm
06:10 AM 56.8°F13.8°C 53.9°F12.2°C 90% Calm Calm -- 29.94 in1013.9 mb - 0.02 in0.5 mm 0.06 in1.5 mm
06:00 AM 57.0°F13.9°C 54.1°F12.3°C 90% 2.3 mph NNW3.7 kmh NNW 5.8 mph9.3 kmh 29.95 in1014.2 mb - 0.03 in0.8 mm 0.06 in1.5 mm
05:50 AM 57.2°F14.0°C 54.3°F12.4°C 90% 2.3 mph NNE3.7 kmh NNE 4.6 mph7.4 kmh 29.96 in1014.6 mb - 0.06 in1.5 mm 0.06 in1.5 mm
05:40 AM 57.3°F14.1°C 54.1°F12.3°C 89% 4.6 mph N7.4 kmh N 5.8 mph9.3 kmh 29.96 in1014.6 mb - 0.06 in1.5 mm 0.06 in1.5 mm
05:30 AM 57.6°F14.2°C 54.1°F12.3°C 88% 3.5 mph N5.6 kmh N 5.8 mph9.3 kmh 29.97 in1014.9 mb - 0.06 in1.5 mm 0.06 in1.5 mm
05:20 AM 58.3°F14.6°C 54.4°F12.4°C 87% 6.9 mph NNW11.1 kmh NNW 9.2 mph14.8 kmh 29.98 in1015.2 mb - 0.05 in1.3 mm 0.05 in1.3 mm
05:10 AM 59.1°F15.1°C 54.9°F12.7°C 86% 2.3 mph NNW3.7 kmh NNW 5.8 mph9.3 kmh 29.99 in1015.6 mb - 0.04 in1.0 mm 0.04 in1.0 mm
05:00 AM 59.9°F15.5°C 55.1°F12.8°C 84% 1.2 mph N1.9 kmh N 3.5 mph5.6 kmh 30.01 in1016.3 mb - 0.03 in0.8 mm 0.03 in0.8 mm
04:50 AM 60.3°F15.7°C 55.1°F12.8°C 83% Calm Calm 3.5 mph5.6 kmh 30.00 in1015.9 mb - 0.01 in0.3 mm 0.01 in0.3 mm
04:40 AM 60.4°F15.8°C 54.9°F12.7°C 82% 1.2 mph N1.9 kmh N 3.5 mph5.6 kmh 30.00 in1015.9 mb - 0.00 in0.0 mm 0.00 in0.0 mm
04:30 AM 60.5°F15.8°C 55.0°F12.8°C 82% Calm Calm -- 29.99 in1015.6 mb - 0.00 in0.0 mm 0.00 in0.0 mm
04:20 AM 60.6°F15.9°C 55.1°F12.8°C 82% 3.5 mph NNE5.6 kmh NNE 6.9 mph11.1 kmh 29.98 in1015.2 mb - 0.00 in0.0 mm 0.00 in0.0 mm
04:10 AM 60.7°F15.9°C 55.2°F12.9°C 82% Calm Calm -- 29.98 in1015.2 mb - 0.00 in0.0 mm 0.00 in0.0 mm
04:00 AM 60.8°F16.0°C 55.3°F12.9°C 82% 1.2 mph NNE1.9 kmh NNE 3.5 mph5.6 kmh 29.98 in1015.2 mb - 0.00 in0.0 mm 0.00 in0.0 mm
03:50 AM 60.9°F16.1°C 55.4°F13.0°C 82% 2.3 mph N3.7 kmh N 8.1 mph13.0 kmh 29.98 in1015.2 mb - 0.00 in0.0 mm 0.00 in0.0 mm
03:40 AM 61.1°F16.2°C 55.2°F12.9°C 81% 1.2 mph N1.9 kmh N 3.5 mph5.6 kmh 29.98 in1015.2 mb - 0.00 in0.0 mm 0.00 in0.0 mm
03:30 AM 61.3°F16.3°C 55.4°F13.0°C 81% 1.2 mph N1.9 kmh N 3.5 mph5.6 kmh 29.98 in1015.2 mb - 0.00 in0.0 mm 0.00 in0.0 mm
03:20 AM 61.6°F16.4°C 55.4°F13.0°C 80% 1.2 mph N1.9 kmh N 3.5 mph5.6 kmh 29.99 in1015.6 mb - 0.00 in0.0 mm 0.00 in0.0 mm
03:10 AM 61.8°F16.6°C 55.6°F13.1°C 80% 2.3 mph N3.7 kmh N 5.8 mph9.3 kmh 29.99 in1015.6 mb - 0.00 in0.0 mm 0.00 in0.0 mm
03:00 AM 61.9°F16.6°C 55.3°F12.9°C 79% 1.2 mph N1.9 kmh N 3.5 mph5.6 kmh 29.98 in1015.2 mb - 0.00 in0.0 mm 0.00 in0.0 mm
02:50 AM 62.1°F16.7°C 55.5°F13.1°C 79% 2.3 mph N3.7 kmh N 3.5 mph5.6 kmh 29.99 in1015.6 mb - 0.00 in0.0 mm 0.00 in0.0 mm
02:40 AM 62.3°F16.8°C 55.7°F13.2°C 79% 2.3 mph N3.7 kmh N 3.5 mph5.6 kmh 30.00 in1015.9 mb - 0.00 in0.0 mm 0.00 in0.0 mm
02:30 AM 62.5°F16.9°C 55.9°F13.3°C 79% Calm Calm -- 30.01 in1016.3 mb - 0.00 in0.0 mm 0.00 in0.0 mm
02:20 AM 62.8°F17.1°C 55.8°F13.2°C 78% Calm Calm 2.3 mph3.7 kmh 30.01 in1016.3 mb - 0.00 in0.0 mm 0.00 in0.0 mm
02:10 AM 63.2°F17.3°C 55.9°F13.3°C 77% Calm Calm -- 30.02 in1016.6 mb - 0.00 in0.0 mm 0.00 in0.0 mm
02:00 AM 63.4°F17.4°C 55.7°F13.2°C 76% Calm Calm -- 30.02 in1016.6 mb - 0.00 in0.0 mm 0.00 in0.0 mm
01:50 AM 63.6°F17.6°C 55.5°F13.1°C 75% 1.2 mph N1.9 kmh N 3.5 mph5.6 kmh 30.03 in1016.9 mb - 0.00 in0.0 mm 0.00 in0.0 mm
01:40 AM 63.8°F17.7°C 55.7°F13.2°C 75% 1.2 mph N1.9 kmh N -- 30.03 in1016.9 mb - 0.00 in0.0 mm 0.00 in0.0 mm
01:30 AM 63.9°F17.7°C 55.8°F13.2°C 75% Calm Calm 2.3 mph3.7 kmh 30.03 in1016.9 mb - 0.00 in0.0 mm 0.00 in0.0 mm
01:20 AM 63.9°F17.7°C 55.8°F13.2°C 75% Calm Calm -- 30.03 in1016.9 mb - 0.00 in0.0 mm 0.00 in0.0 mm
01:10 AM 64.0°F17.8°C 56.3°F13.5°C 76% Calm Calm -- 30.02 in1016.6 mb - 0.00 in0.0 mm 0.00 in0.0 mm
01:00 AM 64.1°F17.8°C 56.4°F13.6°C 76% Calm Calm 2.3 mph3.7 kmh 30.02 in1016.6 mb - 0.00 in0.0 mm 0.00 in0.0 mm
12:50 AM 64.3°F17.9°C 56.6°F13.7°C 76% Calm Calm 3.5 mph5.6 kmh 30.01 in1016.3 mb - 0.00 in0.0 mm 0.00 in0.0 mm
12:40 AM 64.4°F18.0°C 56.6°F13.7°C 76% Calm Calm -- 30.01 in1016.3 mb - 0.00 in0.0 mm 0.00 in0.0 mm
12:30 AM 64.5°F18.1°C 56.8°F13.8°C 76% 1.2 mph N1.9 kmh N 3.5 mph5.6 kmh 30.02 in1016.6 mb - 0.00 in0.0 mm 0.00 in0.0 mm
12:20 AM 64.5°F18.1°C 56.8°F13.8°C 76% Calm Calm -- 30.02 in1016.6 mb - 0.00 in0.0 mm 0.00 in0.0 mm
12:10 AM 64.6°F18.1°C 56.9°F13.8°C 76% 1.2 mph N1.9 kmh N 2.3 mph3.7 kmh 30.02 in1016.6 mb - 0.00 in0.0 mm 0.00 in0.0 mm
12:00 AM 64.7°F18.2°C 57.0°F13.9°C 76% Calm Calm -- 30.01 in1016.3 mb - 0.00 in0.0 mm 0.00 in0.0 mm